Time;durP1;ratioP1;P1;durP2;ratioP2;P2;SDS_P1;SDS_P2;PMS_P1;PMS_P2;Temp;Humidity;BMP_temperature;BMP_pressure;BME280_temperature;BME280_humidity;BME280_pressure;Samples;Min_cycle;Max_cycle;Signal;HPM_P1;HPM_P2
2022/07/17 00:01:28;;;;;;;1.50;1.27;;;26.00;47.90;;;;;;5070435;28;20410;-84
2022/07/17 00:03:53;;;;;;;1.50;1.23;;;26.00;47.90;;;;;;5052141;28;20489;-83
2022/07/17 00:06:19;;;;;;;1.20;1.00;;;26.00;47.90;;;;;;5070731;28;20183;-83
2022/07/17 00:08:46;;;;;;;1.57;1.20;;;25.90;47.80;;;;;;5052567;28;20187;-83
2022/07/17 00:11:12;;;;;;;1.57;1.40;;;26.00;47.90;;;;;;5070052;28;20496;-83
2022/07/17 00:13:37;;;;;;;1.60;1.40;;;26.00;47.80;;;;;;5070019;28;20417;-83
2022/07/17 00:16:03;;;;;;;1.37;1.27;;;26.00;47.80;;;;;;5052659;28;20251;-83
2022/07/17 00:18:29;;;;;;;1.30;1.17;;;26.00;47.80;;;;;;5052664;28;20187;-83
2022/07/17 00:20:55;;;;;;;1.40;1.30;;;26.00;47.80;;;;;;5052549;28;20418;-82
2022/07/17 00:23:21;;;;;;;1.60;1.33;;;26.00;47.80;;;;;;5070062;28;20242;-83
2022/07/17 00:25:46;;;;;;;1.33;1.20;;;26.00;47.70;;;;;;5052392;28;20179;-83
2022/07/17 00:31:34;;;;;;;1.30;1.10;;;26.00;47.70;;;;;;5069827;28;20246;-83
2022/07/17 00:34:00;;;;;;;1.73;1.53;;;26.00;47.80;;;;;;5052199;28;20410;-83
2022/07/17 00:36:26;;;;;;;1.53;1.30;;;25.90;47.70;;;;;;5051453;28;20179;-83
2022/07/17 00:38:55;;;;;;;1.50;1.40;;;26.00;47.80;;;;;;5052405;28;20203;-82
2022/07/17 00:44:44;;;;;;;1.57;1.30;;;26.00;47.70;;;;;;5070192;28;20384;-83
2022/07/17 00:47:18;;;;;;;1.57;1.17;;;25.90;47.70;;;;;;5051891;28;20414;-82
2022/07/17 00:49:45;;;;;;;1.60;1.40;;;25.90;47.70;;;;;;5069724;28;20401;-82
2022/07/17 00:52:13;;;;;;;1.80;1.20;;;25.90;48.30;;;;;;5069236;28;20804;-82
2022/07/17 00:54:40;;;;;;;2.80;1.40;;;25.90;47.70;;;;;;5051919;28;20429;-83
2022/07/17 00:57:09;;;;;;;1.80;1.30;;;25.90;47.70;;;;;;5052501;28;20466;-83
2022/07/17 00:59:36;;;;;;;1.30;1.20;;;25.90;47.70;;;;;;5069685;28;20786;-83
2022/07/17 01:02:13;;;;;;;1.20;1.00;;;25.90;47.70;;;;;;5051495;28;20422;-82
2022/07/17 01:04:40;;;;;;;1.60;1.27;;;25.90;47.70;;;;;;5069640;28;20402;-83
2022/07/17 01:07:06;;;;;;;1.37;1.20;;;25.90;47.70;;;;;;5051387;28;20452;-83
2022/07/17 01:09:33;;;;;;;1.80;1.40;;;25.90;47.70;;;;;;5051910;28;20429;-83
2022/07/17 01:11:59;;;;;;;1.30;1.20;;;25.90;47.70;;;;;;5069358;28;20414;-82
2022/07/17 01:14:27;;;;;;;1.40;1.20;;;25.90;47.70;;;;;;5068960;28;20414;-83
2022/07/17 01:16:53;;;;;;;1.60;1.13;;;25.90;47.70;;;;;;5050660;28;20421;-82
2022/07/17 01:19:21;;;;;;;1.27;1.00;;;25.90;47.70;;;;;;5051112;28;20469;-82
2022/07/17 01:21:50;;;;;;;1.27;1.10;;;25.90;47.70;;;;;;5069263;28;20771;-83
2022/07/17 01:24:19;;;;;;;1.70;1.37;;;25.90;47.70;;;;;;5035130;28;20417;-83
2022/07/17 01:26:47;;;;;;;1.93;1.40;;;25.90;47.70;;;;;;5052087;28;20502;-84
2022/07/17 01:29:17;;;;;;;1.30;1.10;;;25.90;47.70;;;;;;5051287;28;20417;-84
2022/07/17 01:31:43;;;;;;;1.73;1.43;;;25.90;47.70;;;;;;5050997;28;20432;-84
2022/07/17 01:34:10;;;;;;;1.40;1.30;;;25.90;47.70;;;;;;5050693;28;20505;-84
2022/07/17 01:36:36;;;;;;;1.57;1.47;;;25.90;47.60;;;;;;5068036;28;20406;-84
2022/07/17 01:39:04;;;;;;;1.30;1.10;;;25.90;47.70;;;;;;5050085;28;20487;-83
2022/07/17 01:41:30;;;;;;;1.20;1.10;;;25.90;47.70;;;;;;5051163;28;20413;-83
2022/07/17 01:43:56;;;;;;;1.30;1.20;;;25.90;47.70;;;;;;5068364;28;20406;-83
2022/07/17 01:46:23;;;;;;;1.60;1.23;;;25.90;47.70;;;;;;5050209;28;20175;-83
2022/07/17 01:48:49;;;;;;;1.70;1.30;;;25.90;47.60;;;;;;5068641;28;20409;-83
2022/07/17 01:51:14;;;;;;;1.40;1.20;;;25.90;47.60;;;;;;5068824;28;20428;-83
2022/07/17 01:53:40;;;;;;;1.33;1.23;;;25.90;47.60;;;;;;5051294;28;20207;-83
2022/07/17 01:56:07;;;;;;;1.30;1.10;;;25.90;47.60;;;;;;5051319;28;20182;-83
2022/07/17 01:58:33;;;;;;;1.20;1.00;;;25.90;47.60;;;;;;5051116;28;20254;-83
2022/07/17 02:01:00;;;;;;;1.20;1.10;;;25.90;47.60;;;;;;5068965;28;20413;-83
2022/07/17 02:03:25;;;;;;;1.30;1.17;;;25.90;47.60;;;;;;5068434;28;20401;-83
2022/07/17 02:05:51;;;;;;;1.50;1.10;;;25.90;47.60;;;;;;5068570;28;20435;-83
2022/07/17 02:08:17;;;;;;;1.90;1.40;;;25.80;47.50;;;;;;5050632;28;20183;-83
2022/07/17 02:10:43;;;;;;;1.40;1.13;;;25.90;47.60;;;;;;5068900;28;20187;-83
2022/07/17 02:16:31;;;;;;;1.60;1.40;;;25.80;47.50;;;;;;5068641;28;20189;-83
2022/07/17 02:18:57;;;;;;;1.90;1.40;;;25.80;47.50;;;;;;5050621;28;20497;-84
2022/07/17 02:21:22;;;;;;;1.20;1.10;;;25.80;47.50;;;;;;5050342;28;20223;-84
2022/07/17 02:23:51;;;;;;;2.07;1.30;;;25.80;47.50;;;;;;5050480;28;20179;-83
2022/07/17 02:26:19;;;;;;;1.40;1.20;;;25.80;47.50;;;;;;5050471;28;20183;-83
2022/07/17 02:32:07;;;;;;;1.47;1.20;;;25.80;47.50;;;;;;5068178;28;20417;-84
2022/07/17 02:34:32;;;;;;;1.37;1.27;;;25.80;47.60;;;;;;5050631;28;20421;-84
2022/07/17 02:40:20;;;;;;;1.60;0.90;;;25.80;47.50;;;;;;5068010;28;20201;-85
2022/07/17 02:42:46;;;;;;;1.70;1.20;;;25.80;47.60;;;;;;5050501;28;20421;-84
2022/07/17 02:45:13;;;;;;;1.40;1.07;;;25.80;47.60;;;;;;5067721;28;20189;-84
2022/07/17 02:47:39;;;;;;;1.40;1.27;;;25.80;47.60;;;;;;5049987;28;20445;-84
2022/07/17 02:50:07;;;;;;;1.30;1.10;;;25.80;47.50;;;;;;5049873;28;20191;-83
2022/07/17 02:52:33;;;;;;;1.10;1.00;;;25.80;47.50;;;;;;5067661;28;20414;-84
2022/07/17 02:54:59;;;;;;;1.80;1.40;;;25.80;47.50;;;;;;5067794;28;20424;-84
2022/07/17 02:57:25;;;;;;;1.10;1.00;;;25.80;47.50;;;;;;5067784;28;20420;-83
2022/07/17 02:59:51;;;;;;;2.03;1.47;;;25.80;47.50;;;;;;5050175;28;20461;-83
2022/07/17 03:02:20;;;;;;;1.60;1.30;;;25.80;47.50;;;;;;5068752;28;20242;-83
2022/07/17 03:04:46;;;;;;;1.50;1.10;;;25.80;47.50;;;;;;5050110;28;20426;-84
2022/07/17 03:07:12;;;;;;;1.97;1.67;;;25.70;47.40;;;;;;5049659;28;20907;-84
2022/07/17 03:09:37;;;;;;;1.20;1.07;;;25.80;47.50;;;;;;5049298;28;20233;-84
2022/07/17 03:12:03;;;;;;;1.30;1.20;;;25.80;47.40;;;;;;5050229;28;20182;-83
2022/07/17 03:14:29;;;;;;;1.30;1.20;;;25.80;47.40;;;;;;5067276;28;20241;-84
2022/07/17 03:17:26;;;;;;;1.03;0.90;;;25.80;47.50;;;;;;5050299;28;20213;-83
2022/07/17 03:23:14;;;;;;;1.53;1.30;;;25.80;47.40;;;;;;5068588;28;20373;-83
2022/07/17 03:25:40;;;;;;;1.90;1.43;;;25.70;47.40;;;;;;5067395;28;20409;-83
2022/07/17 03:28:06;;;;;;;1.27;1.10;;;25.70;47.40;;;;;;5050108;28;20289;-83
2022/07/17 03:30:32;;;;;;;1.37;1.07;;;25.70;47.40;;;;;;5066675;28;20258;-83
2022/07/17 03:32:58;;;;;;;1.30;1.13;;;25.70;47.40;;;;;;5067322;28;20433;-83
2022/07/17 03:35:23;;;;;;;1.30;1.13;;;25.70;47.40;;;;;;5067362;28;20195;-83
2022/07/17 03:37:49;;;;;;;1.83;1.23;;;25.70;47.40;;;;;;5066345;28;20187;-83
2022/07/17 03:40:15;;;;;;;1.60;1.10;;;25.80;47.40;;;;;;5052031;28;20211;-83
2022/07/17 03:42:41;;;;;;;2.17;1.60;;;25.70;47.40;;;;;;5070831;28;20179;-82
2022/07/17 03:45:07;;;;;;;1.40;1.17;;;25.80;47.40;;;;;;5052797;28;20210;-83
2022/07/17 03:47:33;;;;;;;6.73;1.40;;;25.80;47.40;;;;;;5053286;28;20179;-83
2022/07/17 03:49:59;;;;;;;2.13;1.23;;;25.70;47.30;;;;;;5052945;28;20447;-83
2022/07/17 03:52:25;;;;;;;1.40;1.20;;;25.70;47.30;;;;;;5053076;28;20186;-83
2022/07/17 03:58:15;;;;;;;1.50;1.10;;;25.80;47.30;;;;;;5075649;28;20185;-84
2022/07/17 04:00:44;;;;;;;1.23;1.10;;;25.70;47.30;;;;;;5076281;28;20441;-84
2022/07/17 04:03:10;;;;;;;1.43;1.27;;;25.70;47.30;;;;;;5057690;28;20444;-83
2022/07/17 04:05:36;;;;;;;1.23;1.10;;;25.70;47.30;;;;;;5057585;28;20422;-83
2022/07/17 04:08:03;;;;;;;1.23;1.10;;;25.70;47.30;;;;;;5094471;28;20412;-83
2022/07/17 04:10:29;;;;;;;1.30;1.17;;;25.70;47.30;;;;;;5092366;28;20429;-83
2022/07/17 04:12:58;;;;;;;2.03;1.27;;;25.70;47.30;;;;;;5073786;28;20417;-82
2022/07/17 04:18:10;;;;;;;1.30;1.10;;;25.70;47.30;;;;;;5078981;28;20399;-83
2022/07/17 04:20:36;;;;;;;1.50;1.40;;;25.70;47.30;;;;;;5070048;28;20461;-83
2022/07/17 04:23:02;;;;;;;1.90;1.37;;;25.70;47.30;;;;;;5057607;28;20422;-84
2022/07/17 04:25:28;;;;;;;1.30;1.20;;;25.70;47.30;;;;;;5071205;28;20440;-83
2022/07/17 04:27:55;;;;;;;1.13;1.03;;;25.80;47.30;;;;;;5060930;28;20572;-83
2022/07/17 04:30:21;;;;;;;2.07;1.70;;;25.80;47.30;;;;;;5094849;28;20190;-84
2022/07/17 04:32:48;;;;;;;1.37;1.13;;;25.70;47.30;;;;;;5094186;28;20436;-84
2022/07/17 04:35:14;;;;;;;1.30;1.20;;;25.80;47.30;;;;;;5072521;28;20480;-84
2022/07/17 04:37:42;;;;;;;2.07;1.87;;;25.80;47.30;;;;;;5076435;28;20471;-84
2022/07/17 04:40:17;;;;;;;1.60;1.10;;;25.80;47.30;;;;;;5072851;28;20306;-84
2022/07/17 04:42:43;;;;;;;1.40;1.13;;;25.80;47.30;;;;;;5082624;28;20741;-84
2022/07/17 04:45:11;;;;;;;2.17;1.40;;;25.80;47.30;;;;;;5065062;28;20513;-84
2022/07/17 04:47:39;;;;;;;1.30;1.20;;;25.80;47.30;;;;;;5082376;28;20489;-84
2022/07/17 04:50:07;;;;;;;1.53;1.20;;;25.80;47.30;;;;;;5084497;28;20428;-84
2022/07/17 04:52:34;;;;;;;1.43;1.00;;;25.80;47.30;;;;;;5070932;28;20429;-84
2022/07/17 04:55:00;;;;;;;1.90;1.00;;;25.80;47.30;;;;;;5074048;28;20448;-84
2022/07/17 04:57:31;;;;;;;1.20;1.10;;;25.80;47.30;;;;;;5084932;28;20434;-83
2022/07/17 04:59:59;;;;;;;1.40;1.30;;;25.80;47.30;;;;;;5092461;28;20543;-83
2022/07/17 05:02:25;;;;;;;1.23;1.13;;;25.80;47.30;;;;;;5092613;28;20757;-84
2022/07/17 05:04:52;;;;;;;1.23;1.03;;;25.80;47.30;;;;;;5073229;28;20445;-84
2022/07/17 05:07:18;;;;;;;1.20;1.10;;;25.80;47.30;;;;;;5076070;28;20480;-83
2022/07/17 05:09:44;;;;;;;1.93;1.20;;;25.80;47.30;;;;;;5083964;28;20431;-83
2022/07/17 05:12:10;;;;;;;1.20;1.10;;;25.80;47.30;;;;;;5075632;28;20422;-83
2022/07/17 05:14:37;;;;;;;1.73;1.00;;;25.80;47.20;;;;;;5073814;28;20409;-83
2022/07/17 05:17:03;;;;;;;1.30;1.20;;;25.80;47.30;;;;;;5054400;28;20421;-83
2022/07/17 05:19:30;;;;;;;2.73;1.03;;;25.80;47.20;;;;;;5056153;28;20480;-83
2022/07/17 05:21:57;;;;;;;1.20;1.10;;;25.80;47.20;;;;;;5057958;28;20508;-83
2022/07/17 05:24:24;;;;;;;1.20;0.93;;;25.80;47.20;;;;;;5074877;28;20417;-83
2022/07/17 05:26:51;;;;;;;1.10;1.00;;;25.80;47.20;;;;;;5075172;28;20398;-84
2022/07/17 05:29:19;;;;;;;1.37;1.00;;;25.80;47.20;;;;;;5057119;28;20206;-85
2022/07/17 05:31:45;;;;;;;1.50;1.30;;;25.80;47.20;;;;;;5074015;28;20428;-84
2022/07/17 05:34:12;;;;;;;1.40;1.20;;;25.80;47.20;;;;;;5057100;28;20761;-83
2022/07/17 05:36:40;;;;;;;1.33;1.17;;;25.90;47.30;;;;;;5072623;28;20424;-84
2022/07/17 05:39:08;;;;;;;1.20;1.00;;;25.80;47.20;;;;;;5057100;28;20468;-83
2022/07/17 05:41:34;;;;;;;1.30;1.07;;;25.80;47.20;;;;;;5057000;28;20406;-83
2022/07/17 05:44:03;;;;;;;1.20;1.10;;;25.80;47.20;;;;;;5074707;28;20409;-83
2022/07/17 05:46:28;;;;;;;1.73;1.30;;;25.80;47.20;;;;;;5074464;28;20432;-83
2022/07/17 05:48:54;;;;;;;1.53;1.30;;;25.90;47.20;;;;;;5073551;28;20414;-83
2022/07/17 05:51:21;;;;;;;1.30;1.03;;;25.90;47.20;;;;;;5056143;28;20187;-83
2022/07/17 05:53:47;;;;;;;1.50;0.90;;;25.90;47.20;;;;;;5040346;28;20426;-83
2022/07/17 05:56:13;;;;;;;1.20;1.00;;;25.90;47.20;;;;;;5073670;28;20485;-83
2022/07/17 05:58:39;;;;;;;2.10;1.40;;;25.90;47.20;;;;;;5039581;28;20191;-83
2022/07/17 06:01:05;;;;;;;1.63;1.17;;;25.80;47.10;;;;;;5072092;28;20863;-83
2022/07/17 06:03:31;;;;;;;1.50;1.00;;;25.90;47.20;;;;;;5093730;28;20429;-83
2022/07/17 06:05:58;;;;;;;2.20;1.30;;;25.90;47.20;;;;;;5093994;28;20244;-83
2022/07/17 06:08:24;;;;;;;1.63;1.10;;;25.90;47.20;;;;;;5059333;28;20397;-82
2022/07/17 06:10:53;;;;;;;1.33;1.13;;;25.80;47.10;;;;;;5093925;28;20404;-84
2022/07/17 06:13:20;;;;;;;1.60;1.20;;;25.90;47.20;;;;;;5075234;28;20679;-84
2022/07/17 06:15:46;;;;;;;1.30;1.10;;;25.90;47.20;;;;;;5075599;28;20485;-83
2022/07/17 06:18:14;;;;;;;1.20;1.00;;;25.90;47.10;;;;;;5042913;28;20413;-83
2022/07/17 06:20:40;;;;;;;1.73;1.10;;;25.90;47.10;;;;;;5058835;28;20471;-84
2022/07/17 06:23:06;;;;;;;1.30;1.00;;;25.90;47.10;;;;;;5075512;28;20446;-83
2022/07/17 06:25:33;;;;;;;1.37;1.10;;;25.90;47.10;;;;;;5093336;28;20384;-83
2022/07/17 06:28:00;;;;;;;1.20;1.00;;;25.90;47.10;;;;;;5076015;28;20201;-82
2022/07/17 06:30:27;;;;;;;1.50;1.20;;;25.90;47.10;;;;;;5076478;28;20420;-83
2022/07/17 06:32:56;;;;;;;1.27;1.10;;;25.80;47.10;;;;;;5075318;28;20432;-83
2022/07/17 06:35:23;;;;;;;1.20;1.03;;;25.90;47.10;;;;;;5060252;28;20413;-84
2022/07/17 06:37:52;;;;;;;1.60;1.30;;;25.90;47.20;;;;;;5076214;28;20440;-84
2022/07/17 06:40:18;;;;;;;1.43;1.17;;;25.80;47.10;;;;;;5076075;28;20456;-84
2022/07/17 06:42:46;;;;;;;2.00;1.10;;;25.90;47.20;;;;;;5075552;28;20441;-84
2022/07/17 06:45:15;;;;;;;2.53;1.13;;;25.90;47.20;;;;;;5075767;28;20503;-84
2022/07/17 06:47:42;;;;;;;1.43;1.33;;;25.80;47.10;;;;;;5076277;28;20937;-84
2022/07/17 06:50:10;;;;;;;1.27;1.00;;;25.80;47.10;;;;;;5058684;28;20422;-84
2022/07/17 06:52:36;;;;;;;1.30;1.20;;;25.90;47.10;;;;;;5059272;28;20412;-84
2022/07/17 06:55:03;;;;;;;1.30;1.07;;;25.80;47.10;;;;;;5058628;28;20433;-84
2022/07/17 06:57:35;;;;;;;1.40;1.30;;;25.90;47.20;;;;;;5075859;28;20448;-84
2022/07/17 07:00:10;;;;;;;1.60;1.23;;;25.90;47.20;;;;;;5075676;28;20492;-83
2022/07/17 07:09:20;;;;;;;1.47;1.20;;;25.90;47.20;;;;;;5092097;28;20468;-84
2022/07/17 07:11:46;;;;;;;2.03;1.37;;;25.80;47.20;;;;;;5093041;28;20409;-84
2022/07/17 07:14:12;;;;;;;1.87;1.30;;;25.80;47.20;;;;;;5093791;28;20174;-84
2022/07/17 07:16:39;;;;;;;1.40;1.00;;;25.80;47.20;;;;;;5078890;28;20446;-84
2022/07/17 07:22:27;;;;;;;1.33;1.10;;;25.90;47.30;;;;;;5097371;28;20440;-84
2022/07/17 07:24:53;;;;;;;1.13;1.03;;;25.80;47.20;;;;;;5079215;28;20408;-85
2022/07/17 07:27:20;;;;;;;1.33;1.10;;;25.80;47.20;;;;;;5060403;28;20416;-84
2022/07/17 07:29:45;;;;;;;1.20;1.03;;;25.80;47.20;;;;;;5078158;28;20497;-84
2022/07/17 07:32:11;;;;;;;1.33;1.17;;;25.90;47.30;;;;;;5076891;28;20432;-84
2022/07/17 07:34:39;;;;;;;1.30;0.90;;;25.90;47.20;;;;;;5059539;28;20182;-84
2022/07/17 07:37:06;;;;;;;1.03;0.90;;;25.80;47.20;;;;;;5078645;28;20926;-84
2022/07/17 07:39:34;;;;;;;1.20;0.80;;;25.90;47.20;;;;;;5077283;28;20830;-83
2022/07/17 07:42:00;;;;;;;1.87;1.00;;;25.80;47.20;;;;;;5078753;28;20469;-82
2022/07/17 07:44:26;;;;;;;0.90;0.80;;;25.90;47.20;;;;;;5096613;28;20396;-84
2022/07/17 07:46:52;;;;;;;1.20;0.90;;;25.80;47.20;;;;;;5078809;28;20476;-84
2022/07/17 07:49:21;;;;;;;1.30;1.00;;;25.80;47.20;;;;;;5096964;28;20427;-85
2022/07/17 07:51:47;;;;;;;1.27;1.10;;;25.80;47.20;;;;;;5097411;28;20408;-84
2022/07/17 07:54:13;;;;;;;1.40;1.20;;;25.90;47.20;;;;;;5078832;28;20421;-84
2022/07/17 07:56:39;;;;;;;1.43;1.13;;;25.90;47.20;;;;;;5078950;28;20424;-84
2022/07/17 07:59:06;;;;;;;2.70;1.10;;;25.90;47.20;;;;;;5095241;28;20436;-84
2022/07/17 08:01:33;;;;;;;1.20;1.00;;;25.90;47.30;;;;;;5078745;28;20478;-84
2022/07/17 08:03:59;;;;;;;2.60;1.20;;;25.90;47.20;;;;;;5078596;28;20421;-84
2022/07/17 08:06:27;;;;;;;1.10;1.00;;;25.90;47.20;;;;;;5078478;28;20409;-85
2022/07/17 08:08:56;;;;;;;1.97;1.20;;;25.90;47.20;;;;;;5096172;28;20208;-84
2022/07/17 08:11:24;;;;;;;1.40;1.10;;;25.90;47.20;;;;;;5095050;28;20445;-84
2022/07/17 08:13:50;;;;;;;1.40;1.10;;;25.90;47.20;;;;;;5096010;28;20400;-84
2022/07/17 08:16:17;;;;;;;1.20;0.93;;;25.90;47.20;;;;;;5077691;28;20408;-84
2022/07/17 08:18:43;;;;;;;1.10;0.90;;;25.80;47.20;;;;;;5095792;28;20182;-84
2022/07/17 08:21:16;;;;;;;1.60;1.10;;;25.80;47.20;;;;;;5078383;28;20420;-84
2022/07/17 08:23:45;;;;;;;1.57;0.90;;;25.90;47.20;;;;;;5079594;28;20171;-83
2022/07/17 08:26:20;;;;;;;1.13;0.90;;;25.90;47.20;;;;;;5080242;28;20397;-83
2022/07/17 08:28:46;;;;;;;2.10;1.10;;;25.80;47.20;;;;;;5077691;28;20483;-83
2022/07/17 08:31:15;;;;;;;1.20;1.00;;;25.90;47.30;;;;;;5096097;28;20405;-83
2022/07/17 08:33:41;;;;;;;0.90;0.80;;;25.90;47.30;;;;;;5077944;28;20444;-83
2022/07/17 08:36:10;;;;;;;2.03;1.10;;;25.90;47.30;;;;;;5095350;28;20446;-84
2022/07/17 08:38:36;;;;;;;1.57;1.13;;;25.90;47.30;;;;;;5061209;28;20436;-84
2022/07/17 08:41:04;;;;;;;1.53;1.10;;;25.90;47.30;;;;;;5078254;28;20413;-83
2022/07/17 08:43:30;;;;;;;1.03;0.80;;;25.90;47.30;;;;;;5077664;28;20416;-83
2022/07/17 08:45:58;;;;;;;1.30;0.83;;;25.90;47.30;;;;;;5076750;28;20404;-83
2022/07/17 08:48:26;;;;;;;1.27;0.93;;;25.90;47.30;;;;;;5077815;28;20500;-84
2022/07/17 08:54:16;;;;;;;0.90;0.80;;;25.90;47.30;;;;;;5086275;28;20412;-84
2022/07/17 08:56:42;;;;;;;1.40;1.10;;;25.80;47.30;;;;;;5094026;28;20421;-84
2022/07/17 08:59:11;;;;;;;1.97;1.17;;;25.80;47.30;;;;;;5075399;28;20456;-83
2022/07/17 09:01:38;;;;;;;1.20;1.00;;;25.80;47.30;;;;;;5076181;28;20787;-83
2022/07/17 09:04:09;;;;;;;1.63;1.13;;;25.90;47.40;;;;;;5075674;28;20405;-83
2022/07/17 09:06:36;;;;;;;1.43;1.10;;;25.80;47.30;;;;;;5075119;28;20411;-83
2022/07/17 09:09:23;;;;;;;2.07;1.27;;;25.90;47.40;;;;;;5075454;28;20398;-83
2022/07/17 09:11:54;;;;;;;1.20;0.90;;;25.90;47.40;;;;;;4996019;28;20451;-83
2022/07/17 09:14:22;;;;;;;1.23;1.07;;;25.90;47.40;;;;;;5012544;28;20430;-85
2022/07/17 09:17:00;;;;;;;1.50;1.10;;;25.90;47.40;;;;;;5012494;28;20416;-84
2022/07/17 09:26:30;;;;;;;1.40;0.90;;;25.80;47.40;;;;;;4949053;29;20510;-85
2022/07/17 09:28:56;;;;;;;1.13;0.80;;;25.80;47.40;;;;;;4941971;29;20455;-84
2022/07/17 09:31:26;;;;;;;1.30;0.90;;;25.80;47.50;;;;;;4943081;29;20431;-84
2022/07/17 09:33:54;;;;;;;1.50;1.00;;;25.90;47.50;;;;;;4928175;29;20452;-85
2022/07/17 09:42:59;;;;;;;1.10;0.90;;;25.80;47.40;;;;;;4930029;29;20519;-85
2022/07/17 09:45:25;;;;;;;1.40;1.10;;;25.80;47.50;;;;;;4940525;29;20459;-83
2022/07/17 09:47:53;;;;;;;1.30;0.93;;;25.80;47.40;;;;;;4938872;28;20431;-85
2022/07/17 09:50:20;;;;;;;0.90;0.80;;;25.80;47.40;;;;;;5028451;28;20482;-84
2022/07/17 09:52:49;;;;;;;1.20;1.10;;;25.80;47.50;;;;;;5008974;28;20426;-84
2022/07/17 09:55:18;;;;;;;1.27;0.90;;;25.80;47.40;;;;;;5003940;28;20428;-85
2022/07/17 09:57:47;;;;;;;1.20;0.90;;;25.80;47.40;;;;;;5008519;28;20495;-84
2022/07/17 10:00:13;;;;;;;1.20;1.00;;;25.80;47.40;;;;;;4982128;28;20485;-85
2022/07/17 10:02:42;;;;;;;1.00;0.90;;;25.90;47.50;;;;;;5003958;28;20436;-85
2022/07/17 10:05:15;;;;;;;1.10;0.90;;;25.90;47.40;;;;;;5017621;28;20423;-85
2022/07/17 10:07:45;;;;;;;1.10;0.80;;;25.80;47.40;;;;;;4985611;28;20436;-85
2022/07/17 10:10:13;;;;;;;1.30;0.90;;;25.90;47.40;;;;;;5044111;28;20500;-85
2022/07/17 10:12:44;;;;;;;1.37;0.90;;;25.80;47.40;;;;;;5093511;28;20425;-85
2022/07/17 10:15:13;;;;;;;1.10;0.80;;;25.90;47.40;;;;;;5090582;28;20433;-84
2022/07/17 10:17:40;;;;;;;1.53;1.00;;;25.90;47.50;;;;;;5073387;28;20425;-84
2022/07/17 10:20:10;;;;;;;1.13;1.00;;;25.90;47.40;;;;;;5071982;28;20452;-84
2022/07/17 10:22:44;;;;;;;1.50;1.00;;;25.90;47.40;;;;;;5053593;28;20437;-84
2022/07/17 10:25:18;;;;;;;1.40;1.03;;;25.90;47.40;;;;;;5070391;28;20417;-84
2022/07/17 10:27:59;;;;;;;1.27;1.17;;;25.90;47.50;;;;;;5056576;28;20433;-84
2022/07/17 10:30:28;;;;;;;0.90;0.80;;;25.90;47.40;;;;;;5058573;28;20546;-84
2022/07/17 10:32:59;;;;;;;1.83;1.00;;;25.90;47.50;;;;;;5069871;28;20478;-84
2022/07/17 10:35:29;;;;;;;1.30;0.90;;;25.90;47.50;;;;;;5053353;28;20449;-85
2022/07/17 10:38:14;;;;;;;1.10;0.90;;;25.90;47.50;;;;;;5035823;28;20414;-85
2022/07/17 10:40:44;;;;;;;1.10;0.90;;;25.90;47.50;;;;;;5039583;28;20460;-85
2022/07/17 10:43:10;;;;;;;1.07;0.90;;;25.80;47.50;;;;;;5049222;28;20430;-85
2022/07/17 10:45:45;;;;;;;1.33;0.90;;;25.90;47.50;;;;;;5075356;28;20414;-84
2022/07/17 10:48:49;;;;;;;1.20;0.90;;;25.90;47.60;;;;;;5056753;28;20421;-84
2022/07/17 10:51:16;;;;;;;1.23;0.93;;;25.90;47.50;;;;;;5059399;28;20421;-84
2022/07/17 10:54:18;;;;;;;1.40;0.83;;;25.90;47.50;;;;;;5032839;28;20430;-84
2022/07/17 10:56:44;;;;;;;1.20;0.90;;;25.90;47.50;;;;;;5057842;28;20435;-84
2022/07/17 10:59:11;;;;;;;1.13;0.90;;;25.80;47.50;;;;;;5059557;28;20453;-84
2022/07/17 11:01:38;;;;;;;1.37;1.00;;;25.90;47.60;;;;;;5026620;28;20429;-84
2022/07/17 11:04:06;;;;;;;1.30;0.90;;;25.90;47.50;;;;;;5077752;28;20413;-85
2022/07/17 11:06:37;;;;;;;1.00;0.80;;;25.90;47.50;;;;;;5063277;28;20438;-84
2022/07/17 11:09:11;;;;;;;1.13;1.00;;;25.90;47.50;;;;;;5074435;28;20417;-84
2022/07/17 11:11:48;;;;;;;1.40;1.00;;;25.90;48.10;;;;;;5077839;28;20413;-85
2022/07/17 11:14:24;;;;;;;1.13;0.90;;;25.90;47.50;;;;;;5062909;28;20448;-84
2022/07/17 11:17:11;;;;;;;1.00;0.90;;;25.90;47.50;;;;;;5058967;28;20954;-84
2022/07/17 11:19:39;;;;;;;1.10;0.90;;;25.90;47.50;;;;;;5004967;28;20495;-84
2022/07/17 11:22:09;;;;;;;1.00;0.90;;;25.80;47.50;;;;;;5007291;28;20431;-84
2022/07/17 11:24:46;;;;;;;1.30;0.90;;;25.90;47.60;;;;;;5000484;28;20428;-84
2022/07/17 11:27:27;;;;;;;1.30;0.83;;;25.90;47.50;;;;;;4987997;28;20416;-85
2022/07/17 11:29:58;;;;;;;1.37;0.90;;;25.90;47.50;;;;;;5000915;28;20452;-84
2022/07/17 11:32:25;;;;;;;1.10;0.90;;;25.80;47.50;;;;;;4963029;28;20433;-85
2022/07/17 11:34:53;;;;;;;1.10;0.90;;;25.90;47.60;;;;;;5013244;28;20448;-84
2022/07/17 11:37:21;;;;;;;1.50;1.10;;;25.90;47.60;;;;;;5013552;28;20420;-84
2022/07/17 11:39:50;;;;;;;1.00;0.80;;;25.90;47.60;;;;;;5008698;28;20463;-84
2022/07/17 11:42:19;;;;;;;1.10;0.90;;;25.90;47.60;;;;;;4993074;28;20413;-84
2022/07/17 11:44:50;;;;;;;0.90;0.80;;;25.90;47.60;;;;;;5010114;28;20984;-83
2022/07/17 11:47:26;;;;;;;1.40;0.90;;;25.90;47.50;;;;;;4990760;28;20427;-84
2022/07/17 11:50:04;;;;;;;1.20;0.80;;;25.90;47.50;;;;;;5002788;28;20431;-82
2022/07/17 11:52:42;;;;;;;1.30;1.00;;;25.90;47.50;;;;;;4978148;28;20435;-83
2022/07/17 11:55:09;;;;;;;1.00;0.90;;;25.90;47.50;;;;;;4995258;28;20424;-84
2022/07/17 11:57:45;;;;;;;1.33;0.80;;;25.90;47.50;;;;;;5062234;28;20434;-85
2022/07/17 12:00:14;;;;;;;0.90;0.80;;;25.80;47.50;;;;;;5046960;28;20483;-85
2022/07/17 12:02:40;;;;;;;1.10;0.80;;;25.80;47.50;;;;;;5071626;28;20426;-85
2022/07/17 12:05:06;;;;;;;1.70;1.00;;;25.90;47.50;;;;;;5050810;28;20559;-84
2022/07/17 12:07:48;;;;;;;1.27;0.80;;;25.90;47.50;;;;;;5052675;28;20411;-86
2022/07/17 12:10:13;;;;;;;1.03;0.80;;;25.90;47.50;;;;;;5045502;28;20491;-85
2022/07/17 12:12:40;;;;;;;1.00;0.80;;;25.90;47.60;;;;;;5046743;28;20429;-86
2022/07/17 12:15:06;;;;;;;1.20;0.80;;;25.90;47.60;;;;;;5050316;28;20209;-85
2022/07/17 12:17:39;;;;;;;1.30;0.90;;;25.90;47.60;;;;;;5053697;28;20437;-85
2022/07/17 12:20:08;;;;;;;1.73;1.00;;;25.90;47.60;;;;;;5070017;28;20807;-85
2022/07/17 12:26:08;;;;;;;1.20;1.00;;;25.90;47.60;;;;;;5062816;28;21001;-85
2022/07/17 12:28:36;;;;;;;2.80;0.90;;;25.90;47.60;;;;;;5045545;28;20424;-85
2022/07/17 12:31:02;;;;;;;1.00;0.80;;;25.80;47.50;;;;;;5050995;28;20505;-84
2022/07/17 12:33:28;;;;;;;1.00;0.77;;;25.90;47.60;;;;;;5075731;28;20449;-84
2022/07/17 12:35:55;;;;;;;1.07;0.87;;;25.90;47.60;;;;;;5089469;28;20447;-84
2022/07/17 12:38:23;;;;;;;1.00;0.87;;;25.90;47.60;;;;;;5063978;28;20437;-85
2022/07/17 12:40:49;;;;;;;1.10;0.90;;;25.90;48.10;;;;;;5048048;28;20452;-84
2022/07/17 12:43:15;;;;;;;1.00;0.80;;;25.90;47.60;;;;;;5060097;28;20475;-85
2022/07/17 12:45:40;;;;;;;0.90;0.73;;;25.90;47.60;;;;;;5048305;28;20693;-85
2022/07/17 12:48:06;;;;;;;1.60;0.90;;;25.90;47.60;;;;;;5065593;28;20209;-85
2022/07/17 12:50:32;;;;;;;2.40;1.00;;;25.90;47.60;;;;;;5085379;28;20183;-85
2022/07/17 12:53:01;;;;;;;1.30;0.90;;;25.90;47.50;;;;;;5087779;28;20815;-85
2022/07/17 12:55:28;;;;;;;1.53;1.43;;;25.90;47.50;;;;;;5087757;28;20544;-85
2022/07/17 12:57:55;;;;;;;1.33;0.80;;;25.90;47.50;;;;;;5085210;28;20426;-85
2022/07/17 13:00:21;;;;;;;1.00;0.70;;;25.90;47.50;;;;;;5064047;28;20454;-85
2022/07/17 13:02:46;;;;;;;1.40;0.90;;;25.90;47.50;;;;;;5083918;28;20948;-85
2022/07/17 13:05:13;;;;;;;1.10;0.80;;;25.90;47.50;;;;;;5070189;28;20420;-86
2022/07/17 13:07:39;;;;;;;1.00;0.90;;;25.90;47.50;;;;;;5088538;28;20186;-84
2022/07/17 13:10:06;;;;;;;3.60;1.73;;;25.90;47.50;;;;;;5058716;28;20432;-85
2022/07/17 13:23:19;;;;;;;1.40;0.93;;;25.90;47.50;;;;;;5085669;28;20396;-85
2022/07/17 13:25:44;;;;;;;0.90;0.70;;;25.80;47.50;;;;;;5067611;28;20568;-84
2022/07/17 13:28:48;;;;;;;1.00;0.80;;;25.80;47.60;;;;;;5068441;28;20425;-85
2022/07/17 13:31:52;;;;;;;1.13;0.70;;;25.80;47.50;;;;;;5083807;28;20242;-85
2022/07/17 13:34:55;;;;;;;0.90;0.60;;;25.80;47.50;;;;;;5055246;28;20434;-85
2022/07/17 13:38:02;;;;;;;1.30;0.90;;;25.80;47.50;;;;;;5051222;28;20417;-84
2022/07/17 13:44:28;;;;;;;1.17;1.00;;;25.80;47.60;;;;;;5068307;28;20412;-86
2022/07/17 13:54:16;;;;;;;1.60;1.50;;;25.80;47.60;;;;;;5065455;28;20403;-86
2022/07/17 13:57:21;;;;;;;1.93;0.80;;;25.80;47.60;;;;;;5064423;28;20454;-85
2022/07/17 14:00:24;;;;;;;1.00;0.80;;;25.80;47.60;;;;;;5070900;28;20977;-85
2022/07/17 14:03:27;;;;;;;0.93;0.80;;;25.80;47.60;;;;;;5071136;28;20433;-85
2022/07/17 14:06:31;;;;;;;1.20;0.90;;;25.80;47.60;;;;;;5048167;28;20444;-84
2022/07/17 14:09:34;;;;;;;1.07;0.87;;;25.80;47.50;;;;;;5070806;28;20425;-85
2022/07/17 14:12:37;;;;;;;1.10;0.87;;;25.80;47.50;;;;;;5069482;28;20456;-85
2022/07/17 14:15:41;;;;;;;1.00;0.80;;;25.80;47.50;;;;;;5082902;28;20421;-85
2022/07/17 14:19:00;;;;;;;1.20;0.87;;;25.70;47.50;;;;;;5081210;28;20452;-84